createdAt,value
2023-01-29T00:00:56.436Z,0.00
2023-01-29T00:02:00.361Z,0.00
2023-01-29T00:02:56.415Z,0.00
2023-01-29T00:03:57.209Z,0.00
2023-01-29T00:04:59.077Z,0.00
2023-01-29T00:05:56.378Z,0.00
2023-01-29T00:06:56.642Z,0.00
2023-01-29T00:07:56.617Z,0.00
2023-01-29T00:08:56.638Z,0.00
2023-01-29T00:09:56.362Z,0.00
2023-01-29T00:10:56.311Z,0.00
2023-01-29T00:12:03.639Z,0.00
2023-01-29T00:12:56.551Z,0.00
2023-01-29T00:13:56.280Z,0.00
2023-01-29T00:14:56.259Z,0.00
2023-01-29T00:16:00.111Z,0.00
2023-01-29T00:16:58.023Z,0.00
2023-01-29T00:17:56.252Z,0.00
2023-01-29T00:18:56.940Z,0.00
2023-01-29T00:19:56.223Z,0.00
2023-01-29T00:20:56.243Z,0.00
2023-01-29T00:21:56.497Z,0.00
2023-01-29T00:22:56.203Z,0.00
2023-01-29T00:23:57.862Z,0.00
2023-01-29T00:24:56.152Z,0.00
2023-01-29T00:25:56.385Z,0.00
2023-01-29T00:26:56.128Z,0.00
2023-01-29T00:27:56.426Z,0.00
2023-01-29T00:28:56.864Z,0.00
2023-01-29T00:29:56.377Z,0.00
2023-01-29T00:30:57.830Z,0.00
2023-01-29T00:31:56.468Z,0.00
2023-01-29T00:32:56.986Z,0.00
2023-01-29T00:33:56.095Z,0.00
2023-01-29T00:35:00.838Z,0.00
2023-01-29T00:35:56.007Z,0.00
2023-01-29T00:37:00.128Z,0.00
2023-01-29T00:37:57.257Z,0.00
2023-01-29T00:39:00.185Z,0.00
2023-01-29T00:39:55.997Z,0.00
2023-01-29T00:40:55.949Z,0.00
2023-01-29T00:41:56.206Z,0.00
2023-01-29T00:42:55.920Z,0.00
2023-01-29T00:44:00.494Z,0.00
2023-01-29T00:45:00.537Z,0.00
2023-01-29T00:45:59.771Z,0.00
2023-01-29T00:46:55.926Z,0.00
2023-01-29T00:47:56.157Z,0.00
2023-01-29T00:48:55.841Z,0.00
2023-01-29T00:49:55.860Z,0.00
2023-01-29T00:50:56.030Z,0.00
2023-01-29T00:51:57.489Z,0.00
2023-01-29T00:52:55.820Z,0.00
2023-01-29T00:53:55.790Z,0.00
2023-01-29T00:54:55.806Z,0.00
2023-01-29T00:55:55.785Z,0.00
2023-01-29T00:56:56.431Z,0.00
2023-01-29T00:57:56.613Z,0.00
2023-01-29T00:58:55.722Z,0.00
2023-01-29T00:59:56.422Z,0.00
2023-01-29T01:00:55.743Z,0.00
2023-01-29T01:01:55.726Z,0.00
2023-01-29T01:02:55.721Z,0.00
2023-01-29T01:03:59.585Z,0.00
2023-01-29T01:04:55.693Z,0.00
2023-01-29T01:05:55.644Z,0.00
2023-01-29T01:06:56.316Z,0.00
2023-01-29T01:07:55.627Z,0.00
2023-01-29T01:08:55.895Z,0.00
2023-01-29T01:09:55.635Z,0.00
2023-01-29T01:10:55.891Z,0.00
2023-01-29T01:11:59.835Z,0.00
2023-01-29T01:12:56.250Z,0.00
2023-01-29T01:13:56.523Z,0.00
2023-01-29T01:14:55.563Z,0.00
2023-01-29T01:15:55.592Z,0.00
2023-01-29T01:16:59.055Z,0.00
2023-01-29T01:17:55.525Z,0.00
2023-01-29T01:18:57.446Z,0.00
2023-01-29T01:20:07.023Z,0.00
2023-01-29T01:20:55.488Z,0.00
2023-01-29T01:21:55.474Z,0.00
2023-01-29T01:22:59.301Z,0.00
2023-01-29T01:23:55.767Z,0.00
2023-01-29T01:24:56.377Z,0.00
2023-01-29T01:25:55.688Z,0.00
2023-01-29T01:26:56.382Z,0.00
2023-01-29T01:27:55.405Z,0.00
2023-01-29T01:28:55.630Z,0.00
2023-01-29T01:29:55.357Z,0.00
2023-01-29T01:30:56.132Z,0.00
2023-01-29T01:31:55.377Z,0.00
2023-01-29T01:32:55.706Z,0.00
2023-01-29T01:33:55.309Z,0.00
2023-01-29T01:35:07.099Z,0.00
2023-01-29T01:35:56.070Z,0.00
2023-01-29T01:36:57.901Z,0.00
2023-01-29T01:37:55.264Z,0.00
2023-01-29T01:38:59.041Z,0.00
2023-01-29T01:40:16.528Z,0.00
2023-01-29T01:40:56.949Z,0.00
2023-01-29T01:42:17.123Z,0.00
2023-01-29T01:42:56.948Z,0.00
2023-01-29T01:43:56.395Z,0.00
2023-01-29T01:44:55.194Z,0.00
2023-01-29T01:46:03.018Z,0.00
2023-01-29T01:46:55.133Z,0.00
2023-01-29T01:47:55.177Z,0.00
2023-01-29T01:49:00.636Z,0.00
2023-01-29T01:50:00.373Z,0.00
2023-01-29T01:51:20.424Z,0.00
2023-01-29T01:51:59.326Z,0.00
2023-01-29T01:52:56.023Z,0.00
2023-01-29T01:53:55.302Z,0.00
2023-01-29T01:54:55.343Z,0.00
2023-01-29T01:55:55.025Z,0.00
2023-01-29T01:56:55.700Z,0.00
2023-01-29T01:58:16.105Z,0.00
2023-01-29T01:58:56.792Z,0.00
2023-01-29T01:59:54.992Z,0.00
2023-01-29T02:01:02.941Z,0.00
2023-01-29T02:01:55.272Z,0.00
2023-01-29T02:02:57.197Z,0.00
2023-01-29T02:03:54.936Z,0.00
2023-01-29T02:05:07.042Z,0.00
2023-01-29T02:05:58.750Z,0.00
2023-01-29T02:07:06.860Z,0.00
2023-01-29T02:07:54.891Z,0.00
2023-01-29T02:08:54.927Z,0.00
2023-01-29T02:09:54.866Z,0.00
2023-01-29T02:10:55.117Z,0.00
2023-01-29T02:11:59.458Z,0.00
2023-01-29T02:12:59.367Z,0.00
2023-01-29T02:13:54.810Z,0.00
2023-01-29T02:14:55.006Z,0.00
2023-01-29T02:15:55.800Z,0.00
2023-01-29T02:16:58.465Z,0.00
2023-01-29T02:17:55.769Z,0.00
2023-01-29T02:18:58.792Z,0.00
2023-01-29T02:19:55.023Z,0.00
2023-01-29T02:21:02.259Z,0.00
2023-01-29T02:21:55.440Z,0.00
2023-01-29T02:22:54.695Z,0.00
2023-01-29T02:23:58.652Z,0.00
2023-01-29T02:24:55.405Z,0.00
2023-01-29T02:25:54.669Z,0.00
2023-01-29T02:26:54.691Z,0.00
2023-01-29T02:27:54.646Z,0.00
2023-01-29T02:28:59.110Z,0.00
2023-01-29T02:29:54.625Z,0.00
2023-01-29T02:30:54.633Z,0.00
2023-01-29T02:31:59.390Z,0.00
2023-01-29T02:32:58.587Z,0.00
2023-01-29T02:33:55.345Z,0.00
2023-01-29T02:34:55.505Z,0.00
2023-01-29T02:35:54.803Z,0.00
2023-01-29T02:36:55.466Z,0.00
2023-01-29T02:37:54.512Z,0.00
2023-01-29T02:38:54.543Z,0.00
2023-01-29T02:39:58.305Z,0.00
2023-01-29T02:41:10.060Z,0.00
2023-01-29T02:41:58.194Z,0.00
2023-01-29T02:42:58.269Z,0.00
2023-01-29T02:43:55.108Z,0.00
2023-01-29T02:45:07.294Z,0.00
2023-01-29T02:45:55.220Z,0.00
2023-01-29T02:46:58.144Z,0.00
2023-01-29T02:47:54.657Z,0.00
2023-01-29T02:48:54.380Z,0.00
2023-01-29T02:49:55.257Z,0.00
2023-01-29T02:50:55.332Z,0.00
2023-01-29T02:51:54.590Z,0.00
2023-01-29T02:52:54.326Z,0.00
2023-01-29T02:53:56.088Z,0.00
2023-01-29T02:54:58.137Z,0.00
2023-01-29T02:55:54.400Z,0.00
2023-01-29T02:56:54.284Z,0.00
2023-01-29T02:57:54.279Z,0.00
2023-01-29T02:58:54.277Z,0.00
2023-01-29T02:59:54.261Z,0.00
2023-01-29T03:00:54.524Z,0.00
2023-01-29T03:01:54.357Z,0.00
2023-01-29T03:02:55.926Z,0.00
2023-01-29T03:03:55.920Z,0.00
2023-01-29T03:04:57.959Z,0.00
2023-01-29T03:05:54.179Z,0.00
2023-01-29T03:06:54.155Z,0.00
2023-01-29T03:07:54.197Z,0.00
2023-01-29T03:08:54.144Z,0.00
2023-01-29T03:09:54.408Z,0.00
2023-01-29T03:10:54.151Z,0.00
2023-01-29T03:11:54.101Z,0.00
2023-01-29T03:12:54.351Z,0.00
2023-01-29T03:13:57.801Z,0.00
2023-01-29T03:14:54.318Z,0.00
2023-01-29T03:15:54.141Z,0.00
2023-01-29T03:16:54.327Z,0.00
2023-01-29T03:17:54.307Z,0.00
2023-01-29T03:18:56.013Z,0.00
2023-01-29T03:19:56.731Z,0.00
2023-01-29T03:20:54.234Z,0.00
2023-01-29T03:21:58.114Z,0.00
2023-01-29T03:22:58.567Z,0.00
2023-01-29T03:23:54.012Z,0.00
2023-01-29T03:24:54.914Z,0.00
2023-01-29T03:25:54.181Z,0.00
2023-01-29T03:26:54.666Z,0.00
2023-01-29T03:27:54.167Z,0.00
2023-01-29T03:28:55.903Z,0.00
2023-01-29T03:29:54.182Z,0.00
2023-01-29T03:30:54.682Z,0.00
2023-01-29T03:31:55.882Z,0.00
2023-01-29T03:32:58.339Z,0.00
2023-01-29T03:33:57.730Z,0.00
2023-01-29T03:34:55.040Z,0.00
2023-01-29T03:36:05.252Z,0.00
2023-01-29T03:36:53.909Z,0.00
2023-01-29T03:37:53.778Z,0.00
2023-01-29T03:38:53.768Z,0.00
2023-01-29T03:39:54.008Z,0.00
2023-01-29T03:40:53.758Z,0.00
2023-01-29T03:41:53.726Z,0.00
2023-01-29T03:42:53.828Z,0.00
2023-01-29T03:43:54.419Z,0.00
2023-01-29T03:44:53.702Z,0.00
2023-01-29T03:45:57.656Z,0.00
2023-01-29T03:46:55.403Z,0.00
2023-01-29T03:47:55.154Z,0.00
2023-01-29T03:49:08.386Z,0.00
2023-01-29T03:49:57.471Z,0.00
2023-01-29T03:50:53.634Z,0.00
2023-01-29T03:51:53.622Z,0.00
2023-01-29T03:52:53.593Z,0.00
2023-01-29T03:53:54.124Z,0.00
2023-01-29T03:55:05.184Z,0.00
2023-01-29T03:55:56.272Z,0.00
2023-01-29T03:57:08.683Z,0.00
2023-01-29T03:57:57.133Z,0.00
2023-01-29T03:58:53.528Z,0.00
2023-01-29T03:59:57.542Z,0.00
2023-01-29T04:00:56.156Z,0.00
2023-01-29T04:01:53.488Z,0.00
2023-01-29T04:02:53.716Z,0.00
2023-01-29T04:03:57.092Z,0.00
2023-01-29T04:04:53.465Z,0.00
2023-01-29T04:05:57.215Z,0.00
2023-01-29T04:06:55.159Z,0.00
2023-01-29T04:07:53.666Z,0.00
2023-01-29T04:08:53.658Z,0.00
2023-01-29T04:09:53.381Z,0.00
2023-01-29T04:10:53.401Z,0.00
2023-01-29T04:11:54.057Z,0.00
2023-01-29T04:12:57.830Z,0.00
2023-01-29T04:13:53.341Z,0.00
2023-01-29T04:14:57.148Z,0.00
2023-01-29T04:15:54.068Z,0.00
2023-01-29T04:16:53.323Z,0.00
2023-01-29T04:17:54.319Z,0.00
2023-01-29T04:18:54.019Z,0.00
2023-01-29T04:19:54.920Z,0.00
2023-01-29T04:20:53.248Z,0.00
2023-01-29T04:21:53.242Z,0.00
2023-01-29T04:22:53.230Z,0.00
2023-01-29T04:23:53.340Z,0.00
2023-01-29T04:24:53.215Z,0.00
2023-01-29T04:25:53.181Z,0.00
2023-01-29T04:26:54.891Z,0.00
2023-01-29T04:27:53.177Z,0.00
2023-01-29T04:28:53.243Z,0.00
2023-01-29T04:29:54.100Z,0.00
2023-01-29T04:30:53.276Z,0.00
2023-01-29T04:31:53.178Z,0.00
2023-01-29T04:32:53.800Z,0.00
2023-01-29T04:33:53.100Z,0.00
2023-01-29T04:34:57.013Z,0.00
2023-01-29T04:35:54.013Z,0.00
2023-01-29T04:36:53.076Z,0.00
2023-01-29T04:37:53.774Z,0.00
2023-01-29T04:38:53.036Z,0.00
2023-01-29T04:39:53.072Z,0.00
2023-01-29T04:40:53.034Z,0.00
2023-01-29T04:41:53.298Z,0.00
2023-01-29T04:42:53.024Z,0.00
2023-01-29T04:43:52.968Z,0.00
2023-01-29T04:44:52.988Z,0.00
2023-01-29T04:45:52.946Z,0.00
2023-01-29T04:46:53.020Z,0.00
2023-01-29T04:47:52.941Z,0.00
2023-01-29T04:48:57.184Z,0.00
2023-01-29T04:49:53.208Z,0.00
2023-01-29T04:50:52.890Z,0.00
2023-01-29T04:51:52.898Z,0.00
2023-01-29T04:52:52.990Z,0.00
2023-01-29T04:53:52.869Z,0.00
2023-01-29T04:54:53.107Z,0.00
2023-01-29T04:55:53.091Z,0.00
2023-01-29T04:56:57.807Z,0.00
2023-01-29T04:57:52.802Z,0.00
2023-01-29T04:58:53.078Z,0.00
2023-01-29T04:59:52.780Z,0.00
2023-01-29T05:00:52.757Z,0.00
2023-01-29T05:01:52.782Z,0.00
2023-01-29T05:02:52.783Z,0.00
2023-01-29T05:03:52.710Z,0.00
2023-01-29T05:04:53.688Z,0.00
2023-01-29T05:05:53.438Z,0.00
2023-01-29T05:06:52.700Z,0.00
2023-01-29T05:07:52.682Z,0.00
2023-01-29T05:08:52.677Z,0.00
2023-01-29T05:10:03.871Z,0.00
2023-01-29T05:10:52.654Z,0.00
2023-01-29T05:12:04.458Z,0.00
2023-01-29T05:12:56.410Z,0.00
2023-01-29T05:13:53.335Z,0.00
2023-01-29T05:14:53.393Z,0.00
2023-01-29T05:16:18.208Z,0.00
2023-01-29T05:16:52.830Z,0.00
2023-01-29T05:17:56.493Z,0.00
2023-01-29T05:18:52.548Z,0.00
2023-01-29T05:19:54.235Z,0.00
2023-01-29T05:20:52.583Z,0.00
2023-01-29T05:21:52.529Z,0.00
2023-01-29T05:22:52.766Z,0.00
2023-01-29T05:24:02.134Z,0.00
2023-01-29T05:24:52.482Z,0.00
2023-01-29T05:25:52.780Z,0.00
2023-01-29T05:26:52.489Z,0.00
2023-01-29T05:27:52.719Z,0.00
2023-01-29T05:28:53.276Z,0.00
2023-01-29T05:30:04.006Z,0.00
2023-01-29T05:30:59.411Z,0.00
2023-01-29T05:31:55.081Z,0.00
2023-01-29T05:32:56.287Z,0.00
2023-01-29T05:33:56.205Z,0.00
2023-01-29T05:34:52.629Z,0.00
2023-01-29T05:35:52.619Z,0.00
2023-01-29T05:36:52.587Z,0.00
2023-01-29T05:37:52.310Z,0.00
2023-01-29T05:38:52.967Z,0.00
2023-01-29T05:39:52.289Z,0.00
2023-01-29T05:40:52.270Z,0.00
2023-01-29T05:41:52.542Z,0.00
2023-01-29T05:42:52.254Z,0.00
2023-01-29T05:43:52.923Z,0.00
2023-01-29T05:44:52.389Z,0.00
2023-01-29T05:45:52.227Z,0.00
2023-01-29T05:46:52.598Z,0.00
2023-01-29T05:47:53.201Z,0.00
2023-01-29T05:48:52.188Z,0.00
2023-01-29T05:49:52.176Z,0.00
2023-01-29T05:50:52.440Z,0.00
2023-01-29T05:51:52.139Z,0.00
2023-01-29T05:52:55.905Z,0.00
2023-01-29T05:53:56.571Z,0.00
2023-01-29T05:54:52.106Z,0.00
2023-01-29T05:55:52.093Z,0.00
2023-01-29T05:56:52.440Z,0.00
2023-01-29T05:57:52.074Z,0.00
2023-01-29T05:58:52.758Z,0.00
2023-01-29T05:59:52.066Z,0.00
2023-01-29T06:00:52.027Z,0.00
2023-01-29T06:01:52.048Z,0.00
2023-01-29T06:02:59.427Z,0.00
2023-01-29T06:03:55.882Z,0.00
2023-01-29T06:04:52.966Z,0.00
2023-01-29T06:05:52.644Z,0.00
2023-01-29T06:06:53.664Z,0.00
2023-01-29T06:07:51.954Z,0.00
2023-01-29T06:08:52.414Z,0.00
2023-01-29T06:09:53.678Z,0.00
2023-01-29T06:10:51.912Z,0.00
2023-01-29T06:11:52.150Z,0.00
2023-01-29T06:12:51.901Z,0.00
2023-01-29T06:13:51.871Z,0.00
2023-01-29T06:14:52.222Z,0.00
2023-01-29T06:15:53.675Z,0.00
2023-01-29T06:16:52.114Z,0.00
2023-01-29T06:17:51.830Z,0.00
2023-01-29T06:18:52.760Z,0.00
2023-01-29T06:19:51.794Z,0.00
2023-01-29T06:20:52.669Z,0.00
2023-01-29T06:21:51.772Z,0.00
2023-01-29T06:22:51.769Z,0.00
2023-01-29T06:23:51.743Z,0.00
2023-01-29T06:24:51.736Z,0.00
2023-01-29T06:25:52.511Z,0.00
2023-01-29T06:26:52.507Z,0.00
2023-01-29T06:27:54.672Z,0.00
2023-01-29T06:28:51.689Z,0.00
2023-01-29T06:29:53.653Z,0.00
2023-01-29T06:30:51.687Z,0.00
2023-01-29T06:31:51.746Z,0.00
2023-01-29T06:32:51.685Z,0.00
2023-01-29T06:33:56.315Z,0.00
2023-01-29T06:34:51.607Z,0.00
2023-01-29T06:35:51.631Z,0.00
2023-01-29T06:36:51.591Z,0.00
2023-01-29T06:37:51.569Z,0.00
2023-01-29T06:38:51.662Z,0.00
2023-01-29T06:39:52.004Z,0.00
2023-01-29T06:40:53.977Z,0.00
2023-01-29T06:41:52.354Z,0.00
2023-01-29T06:42:52.295Z,0.00
2023-01-29T06:43:51.488Z,0.00
2023-01-29T06:44:52.321Z,0.00
2023-01-29T06:45:57.261Z,0.00
2023-01-29T06:46:58.996Z,0.00
2023-01-29T06:47:52.169Z,0.00
2023-01-29T06:48:53.195Z,0.00
2023-01-29T06:49:51.416Z,0.00
2023-01-29T06:50:51.702Z,0.00
2023-01-29T06:52:12.388Z,0.00
2023-01-29T06:52:51.377Z,0.00
2023-01-29T06:53:55.166Z,0.00
2023-01-29T06:54:52.610Z,0.00
2023-01-29T06:55:51.350Z,0.00
2023-01-29T06:56:55.122Z,0.00
2023-01-29T06:57:51.322Z,0.00
2023-01-29T06:58:51.316Z,0.00
2023-01-29T07:00:12.308Z,0.00
2023-01-29T07:00:57.850Z,0.00
2023-01-29T07:02:02.866Z,0.00
2023-01-29T07:02:57.413Z,0.00
2023-01-29T07:03:54.860Z,0.00
2023-01-29T07:04:55.132Z,0.00
2023-01-29T07:05:55.040Z,0.00
2023-01-29T07:07:03.901Z,0.00
2023-01-29T07:07:52.158Z,0.00
2023-01-29T07:08:51.223Z,0.00
2023-01-29T07:09:51.922Z,0.00
2023-01-29T07:11:00.563Z,0.00
2023-01-29T07:12:16.992Z,0.00
2023-01-29T07:12:51.132Z,0.00
2023-01-29T07:13:51.129Z,0.00
2023-01-29T07:14:51.203Z,0.00
2023-01-29T07:15:55.205Z,0.00
2023-01-29T07:16:52.090Z,0.00
2023-01-29T07:18:02.343Z,0.00
2023-01-29T07:18:55.855Z,0.00
2023-01-29T07:20:02.925Z,0.00
2023-01-29T07:20:51.808Z,0.00
2023-01-29T07:21:51.024Z,0.00
2023-01-29T07:22:55.714Z,0.00
2023-01-29T07:24:12.064Z,0.00
2023-01-29T07:24:55.041Z,0.00
2023-01-29T07:25:55.176Z,0.00
2023-01-29T07:26:54.816Z,0.00
2023-01-29T07:27:50.969Z,0.00
2023-01-29T07:28:50.935Z,0.00
2023-01-29T07:29:53.859Z,0.00
2023-01-29T07:31:12.146Z,0.00
2023-01-29T07:32:06.002Z,5.62
2023-01-29T07:32:55.517Z,5.62
2023-01-29T07:34:04.236Z,5.62
2023-01-29T07:34:58.227Z,5.62
2023-01-29T07:35:58.381Z,5.62
2023-01-29T07:36:50.847Z,5.62
2023-01-29T07:37:50.833Z,5.62
2023-01-29T07:38:56.233Z,5.62
2023-01-29T07:40:15.058Z,5.62
2023-01-29T07:41:05.761Z,5.62
2023-01-29T07:41:50.789Z,5.62
2023-01-29T07:43:03.275Z,5.62
2023-01-29T07:44:03.425Z,5.62
2023-01-29T07:45:02.299Z,5.62
2023-01-29T07:46:22.941Z,5.62
2023-01-29T07:46:51.720Z,5.62
2023-01-29T07:47:51.001Z,5.62
2023-01-29T07:48:50.690Z,5.62
2023-01-29T07:49:50.701Z,5.62
2023-01-29T07:50:51.401Z,11.25
2023-01-29T07:51:50.661Z,11.25
2023-01-29T07:52:50.646Z,11.25
2023-01-29T07:53:50.643Z,11.25
2023-01-29T07:54:50.626Z,11.25
2023-01-29T07:55:51.369Z,11.25
2023-01-29T07:56:57.935Z,11.25
2023-01-29T07:57:50.592Z,11.25
2023-01-29T07:58:51.315Z,11.25
2023-01-29T07:59:51.303Z,11.25
2023-01-29T08:00:50.840Z,11.25
2023-01-29T08:01:50.994Z,11.25
2023-01-29T08:02:50.523Z,11.25
2023-01-29T08:03:51.511Z,11.25
2023-01-29T08:04:54.256Z,16.88
2023-01-29T08:05:50.765Z,16.88
2023-01-29T08:07:00.006Z,16.88
2023-01-29T08:08:05.303Z,16.88
2023-01-29T08:08:51.455Z,16.88
2023-01-29T08:09:50.442Z,16.88
2023-01-29T08:10:50.685Z,22.50
2023-01-29T08:11:50.426Z,28.12
2023-01-29T08:12:50.696Z,33.75
2023-01-29T08:13:50.670Z,33.75
2023-01-29T08:14:50.410Z,39.38
2023-01-29T08:15:50.361Z,39.38
2023-01-29T08:16:50.494Z,39.38
2023-01-29T08:18:53.197Z,45.00
2023-01-29T08:19:51.191Z,45.00
2023-01-29T08:20:58.159Z,50.62
2023-01-29T08:21:50.317Z,56.25
2023-01-29T08:22:52.022Z,61.88
2023-01-29T08:23:50.264Z,67.50
2023-01-29T08:24:54.049Z,67.50
2023-01-29T08:25:52.067Z,67.50
2023-01-29T08:26:50.941Z,67.50
2023-01-29T08:27:50.499Z,73.12
2023-01-29T08:28:50.466Z,78.75
2023-01-29T08:29:50.212Z,84.38
2023-01-29T08:30:50.322Z,78.75
2023-01-29T08:32:05.368Z,78.75
2023-01-29T08:32:54.608Z,78.75
2023-01-29T08:33:50.909Z,78.75
2023-01-29T08:34:50.171Z,84.38
2023-01-29T08:35:50.905Z,84.38
2023-01-29T08:36:50.220Z,78.75
2023-01-29T08:37:50.088Z,78.75
2023-01-29T08:38:50.147Z,73.12
2023-01-29T08:39:50.079Z,73.12
2023-01-29T08:40:50.079Z,78.75
2023-01-29T08:41:50.055Z,84.38
2023-01-29T08:42:50.344Z,90.00
2023-01-29T08:43:50.363Z,84.38
2023-01-29T08:44:50.258Z,84.38
2023-01-29T08:45:50.000Z,90.00
2023-01-29T08:46:49.984Z,90.00
2023-01-29T08:47:50.245Z,78.75
2023-01-29T08:48:50.757Z,67.50
2023-01-29T08:49:49.970Z,61.88
2023-01-29T08:50:49.936Z,56.25
2023-01-29T08:51:50.246Z,56.25
2023-01-29T08:52:49.915Z,56.25
2023-01-29T08:53:51.697Z,50.62
2023-01-29T08:54:49.948Z,56.25
2023-01-29T08:55:50.137Z,56.25
2023-01-29T08:56:50.647Z,61.88
2023-01-29T08:57:49.849Z,67.50
2023-01-29T08:58:49.827Z,67.50
2023-01-29T08:59:49.820Z,61.88
2023-01-29T09:00:49.924Z,56.25
2023-01-29T09:01:50.544Z,56.25
2023-01-29T09:02:49.780Z,56.25
2023-01-29T09:03:49.771Z,61.88
2023-01-29T09:04:49.762Z,61.88
2023-01-29T09:05:49.795Z,61.88
2023-01-29T09:06:49.859Z,67.50
2023-01-29T09:07:49.722Z,67.50
2023-01-29T09:08:53.470Z,61.88
2023-01-29T09:09:49.980Z,61.88
2023-01-29T09:10:49.690Z,61.88
2023-01-29T09:11:49.683Z,56.25
2023-01-29T09:12:49.701Z,56.25
2023-01-29T09:13:49.652Z,50.62
2023-01-29T09:14:50.392Z,50.62
2023-01-29T09:15:49.871Z,50.62
2023-01-29T09:16:50.416Z,56.25
2023-01-29T09:17:49.590Z,56.25
2023-01-29T09:18:49.648Z,56.25
2023-01-29T09:19:53.438Z,56.25
2023-01-29T09:20:50.335Z,56.25
2023-01-29T09:21:49.553Z,56.25
2023-01-29T09:22:49.836Z,56.25
2023-01-29T09:23:49.514Z,61.88
2023-01-29T09:24:51.247Z,61.88
2023-01-29T09:25:49.765Z,61.88
2023-01-29T09:26:49.531Z,67.50
2023-01-29T09:27:49.478Z,73.12
2023-01-29T09:28:49.752Z,73.12
2023-01-29T09:29:49.713Z,78.75
2023-01-29T09:30:49.610Z,78.75
2023-01-29T09:31:49.851Z,84.38
2023-01-29T09:32:53.531Z,84.38
2023-01-29T09:33:50.844Z,84.38
2023-01-29T09:34:50.346Z,84.38
2023-01-29T09:35:50.835Z,84.38
2023-01-29T09:36:49.500Z,84.38
2023-01-29T09:37:49.609Z,84.38
2023-01-29T09:38:49.337Z,84.38
2023-01-29T09:39:49.598Z,84.38
2023-01-29T09:40:49.328Z,90.00
2023-01-29T09:41:49.320Z,90.00
2023-01-29T09:42:49.420Z,95.62
2023-01-29T09:43:49.567Z,95.62
2023-01-29T09:44:49.261Z,90.00
2023-01-29T09:45:49.534Z,90.00
2023-01-29T09:46:49.500Z,90.00
2023-01-29T09:47:49.228Z,95.62
2023-01-29T09:48:49.259Z,101.25
2023-01-29T09:49:49.218Z,106.88
2023-01-29T09:50:49.213Z,112.50
2023-01-29T09:51:49.177Z,112.50
2023-01-29T09:52:49.434Z,112.50
2023-01-29T09:53:49.414Z,106.88
2023-01-29T09:54:49.195Z,106.88
2023-01-29T09:55:49.121Z,123.75
2023-01-29T09:56:49.126Z,129.38
2023-01-29T09:57:49.116Z,129.38
2023-01-29T09:58:49.108Z,129.38
2023-01-29T09:59:49.088Z,123.75
2023-01-29T10:00:49.206Z,123.75
2023-01-29T10:01:49.148Z,123.75
2023-01-29T10:02:49.054Z,123.75
2023-01-29T10:03:49.024Z,118.12
2023-01-29T10:04:49.065Z,112.50
2023-01-29T10:05:49.015Z,106.88
2023-01-29T10:06:49.023Z,112.50
2023-01-29T10:07:49.683Z,112.50
2023-01-29T10:08:48.983Z,118.12
2023-01-29T10:09:48.957Z,118.12
2023-01-29T10:10:48.954Z,118.12
2023-01-29T10:11:48.951Z,118.12
2023-01-29T10:12:48.945Z,101.25
2023-01-29T10:13:48.917Z,95.62
2023-01-29T10:14:48.913Z,95.62
2023-01-29T10:15:48.891Z,106.88
2023-01-29T10:16:48.961Z,118.12
2023-01-29T10:17:50.306Z,118.12
2023-01-29T10:18:48.893Z,118.12
2023-01-29T10:19:49.194Z,118.12
2023-01-29T10:20:49.546Z,123.75
2023-01-29T10:21:48.811Z,129.38
2023-01-29T10:22:48.818Z,129.38
2023-01-29T10:23:48.787Z,135.00
2023-01-29T10:24:49.051Z,135.00
2023-01-29T10:25:48.757Z,135.00
2023-01-29T10:26:49.036Z,135.00
2023-01-29T10:27:48.784Z,135.00
2023-01-29T10:28:48.721Z,135.00
2023-01-29T10:29:48.984Z,135.00
2023-01-29T10:30:48.819Z,129.38
2023-01-29T10:31:48.926Z,129.38
2023-01-29T10:32:48.692Z,123.75
2023-01-29T10:34:00.703Z,118.12
2023-01-29T10:34:49.655Z,118.12
2023-01-29T10:35:48.641Z,118.12
2023-01-29T10:36:48.686Z,118.12
2023-01-29T10:37:48.699Z,118.12
2023-01-29T10:38:48.596Z,118.12
2023-01-29T10:39:48.583Z,123.75
2023-01-29T10:40:48.574Z,123.75
2023-01-29T10:41:48.589Z,118.12
2023-01-29T10:42:48.581Z,123.75
2023-01-29T10:43:48.550Z,123.75
2023-01-29T10:44:49.481Z,129.38
2023-01-29T10:45:48.763Z,129.38
2023-01-29T10:46:48.494Z,129.38
2023-01-29T10:47:48.676Z,129.38
2023-01-29T10:48:49.322Z,129.38
2023-01-29T10:49:48.473Z,129.38
2023-01-29T10:50:48.459Z,123.75
2023-01-29T10:51:48.435Z,123.75
2023-01-29T10:52:48.437Z,123.75
2023-01-29T10:53:48.655Z,123.75
2023-01-29T10:54:48.511Z,129.38
2023-01-29T10:55:48.393Z,129.38
2023-01-29T10:56:48.371Z,123.75
2023-01-29T10:57:48.366Z,123.75
2023-01-29T10:58:48.349Z,123.75
2023-01-29T10:59:49.036Z,129.38
2023-01-29T11:00:48.423Z,135.00
2023-01-29T11:01:48.364Z,135.00
2023-01-29T11:02:48.466Z,129.38
2023-01-29T11:03:48.282Z,129.38
2023-01-29T11:04:49.207Z,135.00
2023-01-29T11:05:48.277Z,135.00
2023-01-29T11:06:48.378Z,129.38
2023-01-29T11:07:49.020Z,129.38
2023-01-29T11:08:48.219Z,129.38
2023-01-29T11:09:48.213Z,123.75
2023-01-29T11:10:48.202Z,123.75
2023-01-29T11:11:48.206Z,123.75
2023-01-29T11:12:48.223Z,123.75
2023-01-29T11:13:48.199Z,129.38
2023-01-29T11:14:48.172Z,123.75
2023-01-29T11:15:48.153Z,123.75
2023-01-29T11:16:48.269Z,118.12
2023-01-29T11:17:48.901Z,118.12
2023-01-29T11:18:48.153Z,112.50
2023-01-29T11:19:48.091Z,112.50
2023-01-29T11:20:48.073Z,112.50
2023-01-29T11:21:48.334Z,112.50
2023-01-29T11:22:48.064Z,112.50
2023-01-29T11:23:48.040Z,112.50
2023-01-29T11:24:48.334Z,106.88
2023-01-29T11:25:48.006Z,112.50
2023-01-29T11:26:48.024Z,118.12
2023-01-29T11:27:47.996Z,118.12
2023-01-29T11:28:48.006Z,118.12
2023-01-29T11:29:47.978Z,123.75
2023-01-29T11:30:48.051Z,129.38
2023-01-29T11:31:47.958Z,135.00
2023-01-29T11:32:47.933Z,135.00
2023-01-29T11:33:47.929Z,135.00
2023-01-29T11:34:48.168Z,129.38
2023-01-29T11:35:47.897Z,135.00
2023-01-29T11:36:47.928Z,135.00
2023-01-29T11:37:47.862Z,140.62
2023-01-29T11:38:48.588Z,140.62
2023-01-29T11:39:47.836Z,140.62
2023-01-29T11:40:48.792Z,146.25
2023-01-29T11:41:47.818Z,146.25
2023-01-29T11:42:47.838Z,146.25
2023-01-29T11:43:47.807Z,146.25
2023-01-29T11:44:48.511Z,146.25
2023-01-29T11:45:47.780Z,146.25
2023-01-29T11:46:47.805Z,140.62
2023-01-29T11:47:47.731Z,140.62
2023-01-29T11:48:47.771Z,140.62
2023-01-29T11:49:47.700Z,135.00
2023-01-29T11:50:47.710Z,135.00
2023-01-29T11:51:47.683Z,135.00
2023-01-29T11:52:51.552Z,135.00
2023-01-29T11:53:47.674Z,123.75
2023-01-29T11:54:47.691Z,123.75
2023-01-29T11:55:50.820Z,123.75
2023-01-29T11:56:47.628Z,118.12
2023-01-29T11:57:47.622Z,118.12
2023-01-29T11:58:47.613Z,118.12
2023-01-29T11:59:47.584Z,112.50
2023-01-29T12:00:47.685Z,112.50
2023-01-29T12:01:47.574Z,106.88
2023-01-29T12:02:47.543Z,106.88
2023-01-29T12:03:47.641Z,106.88
2023-01-29T12:04:47.532Z,106.88
2023-01-29T12:05:47.549Z,112.50
2023-01-29T12:06:47.524Z,118.12
2023-01-29T12:07:48.476Z,118.12
2023-01-29T12:08:47.475Z,112.50
2023-01-29T12:09:48.136Z,118.12
2023-01-29T12:10:47.467Z,123.75
2023-01-29T12:11:47.447Z,118.12
2023-01-29T12:12:47.539Z,112.50
2023-01-29T12:13:47.435Z,118.12
2023-01-29T12:14:52.260Z,123.75
2023-01-29T12:15:47.459Z,118.12
2023-01-29T12:16:47.389Z,118.12
2023-01-29T12:17:47.364Z,118.12
2023-01-29T12:18:47.459Z,106.88
2023-01-29T12:19:47.362Z,101.25
2023-01-29T12:20:47.318Z,101.25
2023-01-29T12:21:47.324Z,101.25
2023-01-29T12:22:47.301Z,95.62
2023-01-29T12:23:47.280Z,95.62
2023-01-29T12:24:47.481Z,101.25
2023-01-29T12:25:47.271Z,106.88
2023-01-29T12:26:47.264Z,101.25
2023-01-29T12:27:48.070Z,101.25
2023-01-29T12:28:47.461Z,101.25
2023-01-29T12:29:47.373Z,101.25
2023-01-29T12:30:47.274Z,101.25
2023-01-29T12:31:47.246Z,101.25
2023-01-29T12:32:47.184Z,95.62
2023-01-29T12:33:47.196Z,95.62
2023-01-29T12:34:47.147Z,95.62
2023-01-29T12:35:47.165Z,101.25
2023-01-29T12:36:50.912Z,101.25
2023-01-29T12:37:47.114Z,101.25
2023-01-29T12:38:48.062Z,106.88
2023-01-29T12:39:47.084Z,101.25
2023-01-29T12:40:47.093Z,101.25
2023-01-29T12:41:47.368Z,106.88
2023-01-29T12:42:47.085Z,106.88
2023-01-29T12:43:47.052Z,118.12
2023-01-29T12:44:47.045Z,112.50
2023-01-29T12:45:47.705Z,118.12
2023-01-29T12:46:47.034Z,123.75
2023-01-29T12:47:47.003Z,123.75
2023-01-29T12:48:46.988Z,123.75
2023-01-29T12:49:46.978Z,118.12
2023-01-29T12:50:46.948Z,118.12
2023-01-29T12:51:46.950Z,118.12
2023-01-29T12:52:46.930Z,118.12
2023-01-29T12:53:47.696Z,106.88
2023-01-29T12:54:47.023Z,101.25
2023-01-29T12:55:46.892Z,95.62
2023-01-29T12:56:46.869Z,95.62
2023-01-29T12:57:46.912Z,106.88
2023-01-29T12:58:46.869Z,106.88
2023-01-29T12:59:46.841Z,101.25
2023-01-29T13:00:46.990Z,106.88
2023-01-29T13:01:46.820Z,112.50
2023-01-29T13:02:46.823Z,106.88